Accueil
METAR-TAF:

METAR-TAF

Aéroports :

Aéroport international Ambouli

Djibouti, Djibouti

latitude: 11-33N, longitude: 043-10E, altitude: 49 m

METAR: absent

Heure: 07:09 (04:09 UTC)

Prévision

Le bulletin a été fait il y a 17 heures et 9 minutes, à 11:00 UTC
Prévision valable du 09 à 12 UTC au 10 à 12 UTC
Vent 10 kt de ouest avec des rafales jusqu'à 15 kt
Visibilité 10 km ou plus
Nuages épars à une hauteur de 2300 ft
Quelques nuages à une hauteur de 3000 ft, Cumulonimbus.
Evoluant progressivement
du 09 à 15 UTC au 09 à 21 UTC
Vent 5 kt de direction variable
Nuages épars à une hauteur de 13300 ft
Evoluant progressivement
du 10 à 00 UTC au 10 à 06 UTC
Vent 12 kt de sud-ouest
Nuages épars à une hauteur de 2000 ft
Quelques nuages à une hauteur de 13300 ft

TAF: HDAM 091100Z 0912/1012 28010G15KT 9999 SCT023 FEW030CB BECMG 0915/0921 VRB05KT SCT133 BECMG 1000/1006 23012KT SCT020 FEW133

Observations et prévisions météorologiques de plus de 4000 aéroports (messages METAR et TAF).

Les stations disponibles sont représentées par des disques jaunes et rouges sur la carte.

Passer la souris dessus pour voir le nom de la station.

Cliquer dessus pour voir les observations et prévisions météorologiques.

Pour changer de carte: cliquez sur les boutons verts avec une croix noire pour zoomer, sur le bouton vert avec un tiret pour effectuer un zoom arrière, ou sur les flèches vertes pour les cartes adjacentes.


METAR-TAF: